Tiempo atmosférico en la estación meteorológica de Bielsa, Huesca (990 m.)



Fecha
DESCASC
Temp. máxima en grados centígrados (hora)
DESCASC
Temp. mínima en grados centígrados (hora)
DESCASC
Temp. media en grados centígrados
DESCASC
Racha de viento máxima en m/sg (hora)
DESCASC
Velocidad máxima media en intervalos de 10 minutos(hora)
DESCASC
Precipitaciones diarias en mm
DESCASC
Precipitaciones de 00:00 a 06:00 en mm
DESCASC
Precipitaciones de 06:00 a 12:00 en mm
DESCASC
Precipitaciones de 12:00 a 18:00 en mm
DESCASC
Precipitaciones de 18:00 a 24:00 en mm
DESCASC
20-05-2018 18.9 (12:40) 5.3 (06:30) 12.1 6.39 (12:30) 2.22 (12:30) 5.4 0 0 5.4 0
19-05-2018 22.9 (14:20) 5.3 (06:40) 14.1 8.89 (15:30) 3.61 (10:40) 0.2 0 0 0 0.2
18-05-2018 20.8 (17:00) 6.2 (00:00) 13.5 8.61 (12:10) 3.06 (15:20) 0 0 0 0 0
17-05-2018 21.7 (15:10) 4.7 (00:00) 13.2 12.5 (17:00) 5.56 (16:20) 0 0 0 0 0
16-05-2018 21.1 (16:10) 5.8 (00:00) 13.5 11.39 (13:10) 6.67 (14:00) 0 0 0 0 0
15-05-2018 13.2 (11:50) 7 (00:00) 10.1 10.83 (04:00) 4.72 (04:00) 0 0 0 0 0
14-05-2018 13.4 (16:00) 0.6 (00:00) 7 15.56 (16:20) 5.83 (16:20) 0 0 0 0 0
13-05-2018 12.5 (17:20) 2.9 (00:00) 7.7 11.67 (00:30) 5 (11:40) 0 0 0 0 0
12-05-2018 17.5 (14:50) 5.1 (00:00) 11.3 13.33 (19:40) 5 (20:50) 7.8 0.6 0.2 2 5
11-05-2018 23.2 (16:40) 5.3 (07:10) 14.3 7.78 (12:00) 3.33 (12:00) 0 0 0 0 0
10-05-2018 19.2 (13:10) 8.8 (00:00) 14 17.5 (14:40) 8.33 (15:30) 0 0 0 0 0
09-05-2018 21.1 (15:20) 6 (00:00) 13.6 12.78 (13:10) 6.94 (13:10) 0 0 0 0 0
08-05-2018 20.9 (17:40) 8.8 (00:00) 14.8 9.72 (13:40) 4.44 (19:00) 9.4 9.4 0 0 0
07-05-2018 23.9 (15:30) 8.2 (00:00) 16 14.44 (15:50) 5.28 (14:00) 4.4 0 0 0 4.4
06-05-2018 22.7 (15:20) 5.1 (00:00) 13.9 8.06 (18:10) 3.89 (16:40) 0 0 0 0 0
05-05-2018 19.4 (14:00) 8 (00:00) 13.7 12.5 (03:30) 6.94 (03:30) 0 0 0 0 0
04-05-2018 16.7 (14:20) 8.7 (00:00) 12.7 16.11 (10:40) 7.5 (17:00) 0 0 0 0 0
03-05-2018 13.1 (16:10) 6.3 (00:00) 9.7 16.11 (15:40) 7.78 (15:40) 1 0.8 0.2 0 0
02-05-2018 15.4 (14:00) -1.2 (-00:0) 7.1 9.72 (16:30) 4.44 (16:30) 0 0 0 0 0
01-05-2018 11.9 (14:10) 0.4 (06:40) 6.1 11.11 (16:40) 5 (14:20) 0 0 0 0 0
30-04-2018 7.8 (11:10) 2.7 (00:00) 5.3 8.06 (17:20) 3.89 (17:20) 3.6 2 0 1.6 0
29-04-2018 10.5 (02:50) 3.3 (00:00) 6.9 16.39 (02:00) 8.06 (02:00) 46.4 26 11.2 7.8 1.4
28-04-2018 16.5 (14:40) 7.1 (00:00) 11.8 20.28 (19:00) 7.78 (19:20) 21.6 2.4 1.6 0 17.6
27-04-2018 22.2 (12:40) 8.1 (00:00) 15.2 10.56 (17:10) 5.56 (17:20) 16.4 0 0 0.2 16.2
26-04-2018 23.7 (14:20) 7.7 (00:00) 15.7 10 (12:40) 3.61 (13:40) 0 0 0 0 0
25-04-2018 26.6 (14:40) 6.9 (00:00) 16.8 9.44 (16:10) 4.17 (16:10) 0 0 0 0 0
24-04-2018 24.6 (16:20) 4.8 (00:00) 14.7 8.06 (13:10) 2.78 (13:10) 0 0 0 0 0
23-04-2018 18.7 (12:20) 7.8 (00:00) 13.3 8.89 (10:00) 3.89 (13:30) 6 0 0.2 5.8 0
22-04-2018 23.6 (16:00) 6.6 (00:00) 15.1 8.89 (16:20) 3.33 (16:20) 0 0 0 0 0

Gráficas

Temp. máximas Temp. mínimas Temp. medias Precipitaciones Rachas de viento máximas Velocidades máximas media en intervalos de 10 minutos

Datos horarios

Fecha y hora oficial Temperatura (ºC) Velocidad del viento (km/h) Dirección del viento Racha (km/h) Dirección de racha Precipitación (mm) Presión (hPa) Tendencia (hPa) Humedad (%)
2018-05-21 23:00:00 9.9 0 Calma 15 Oeste 1 -- -- 97
2018-05-21 22:00:00 10 0 Calma 3 Sudeste 3.4 -- -- 97
2018-05-21 21:00:00 10.2 2 Nordeste 15 Este 4.2 -- -- 95
2018-05-21 20:00:00 11 5 Este 16 Sudeste 3 -- -- 94
2018-05-21 19:00:00 11.6 2 Sudeste 25 Norte 3.8 -- -- 92
2018-05-21 18:00:00 13.9 5 Noroeste 20 Noroeste 2.6 -- -- 88
2018-05-21 17:00:00 18 3 Sur 15 Sudeste 0 -- -- 59
2018-05-21 16:00:00 18.4 6 Sudeste 24 Sudeste 0 -- -- 48
2018-05-21 15:00:00 19.8 6 Sudeste 23 Sur 0 -- -- 49
2018-05-21 14:00:00 17.1 5 Sudeste 25 Sur 0 -- -- 62
2018-05-21 13:00:00 17.4 6 Sudeste 21 Este 0 -- -- 58
2018-05-21 12:00:00 15.5 3 Sudeste 12 Este 0 -- -- 63
2018-05-21 11:00:00 15 3 Sudeste 8 Sudeste 0 -- -- 71
2018-05-21 10:00:00 12.5 0 Calma 5 Norte 0 -- -- 82
2018-05-21 09:00:00 11 3 Noroeste 15 Norte 0.2 -- -- 91
2018-05-21 08:00:00 9.6 2 Oeste 10 Noroeste 0 -- -- 96
2018-05-21 07:00:00 9 0 Calma 5 Oeste 0 -- -- 97
2018-05-21 06:00:00 9.3 3 Norte 12 Norte 0 -- -- 97
2018-05-21 05:00:00 9.6 3 Norte 9 Norte 0 -- -- 97
2018-05-21 04:00:00 9.8 0 Calma 5 Sudoeste 0.2 -- -- 97
2018-05-21 03:00:00 9.9 2 Oeste 9 Noroeste 0 -- -- 97
2018-05-21 02:00:00 9.6 0 Calma 6 Noroeste 0 -- -- 97
2018-05-21 01:00:00 9.6 0 Calma 6 Noroeste 0 -- -- 97
2018-05-21 00:00:00 9.7 0 Calma 3 Oeste 0 -- -- 96
2018-05-20 23:00:00 10 0 Calma 4 Noroeste 0 -- -- 95
2018-05-20 22:00:00 10.8 0 Calma 4 Norte 0 -- -- 93
2018-05-20 21:00:00 12.1 0 Calma 4 Sur 0 -- -- 91
2018-05-20 20:00:00 13.1 0 Calma 8 Este 0 -- -- 88
2018-05-20 19:00:00 13.4 3 Sudeste 9 Noroeste 0 -- -- 88
2018-05-20 18:00:00 13.5 0 Calma 6 Este 0.2 -- -- 86
2018-05-20 17:00:00 12.3 3 Sudeste 9 Noroeste 0.8 -- -- 89
2018-05-20 16:00:00 12 2 Norte 20 Oeste 4.4 -- -- 88
2018-05-20 15:00:00 16.4 4 Sur 11 Sudeste 0 -- -- 69
2018-05-20 14:00:00 18.2 3 Sudeste 15 Sur 0 -- -- 47
2018-05-20 13:00:00 17.6 4 Sudeste 23 Sudeste 0 -- -- 49
2018-05-20 12:00:00 16.3 7 Sudeste 21 Sur 0 -- -- 57
2018-05-20 11:00:00 13.2 0 Calma 6 Este 0 -- -- 68
2018-05-20 10:00:00 11.9 2 Sudeste 8 Norte 0 -- -- 74
2018-05-20 09:00:00 9.1 0 Calma 6 Noroeste 0 -- -- 87
2018-05-20 08:00:00 6.5 0 Calma 13 Noroeste 0 -- -- 92
2018-05-20 07:00:00 5.6 4 Noroeste 12 Norte 0 -- -- 96
2018-05-20 06:00:00 5.7 0 Calma 9 Norte 0 -- -- 94
2018-05-20 05:00:00 5.9 3 Noroeste 9 Norte 0 -- -- 94
2018-05-20 04:00:00 6.3 2 Norte 5 Noroeste 0 -- -- 93
2018-05-20 03:00:00 7 0 Calma 12 Norte 0 -- -- 91
2018-05-20 02:00:00 7.6 2 Noroeste 4 Noroeste 0 -- -- 91
2018-05-20 01:00:00 8.5 0 Calma 8 Norte 0 -- -- 89
2018-05-20 00:00:00 9.4 3 Noroeste 6 Norte 0 -- -- 90
2018-05-19 23:00:00 9.7 0 Calma 6 Norte 0 -- -- 87
2018-05-19 22:00:00 11.2 0 Calma 9 Noroeste 0 -- -- 84
2018-05-19 21:00:00 12.6 0 Calma 8 Este 0 -- -- 81
2018-05-19 20:00:00 13.4 3 Sudeste 9 Este 0 -- -- 76
2018-05-19 19:00:00 14.3 4 Sudeste 12 Sur 0.2 -- -- 76
2018-05-19 18:00:00 16.6 0 Calma 29 Este 0 -- -- 60
2018-05-19 17:00:00 17.6 12 Este 29 Este 0 -- -- 53
2018-05-19 16:00:00 17.9 7 Sudeste 32 Este 0 -- -- 52
2018-05-19 15:00:00 20 6 Sudeste 20 Sudeste 0 -- -- 42
2018-05-19 14:00:00 22.1 9 Sudeste 26 Sudeste 0 -- -- 40
2018-05-19 13:00:00 21.6 9 Sudeste 22 Sur 0 -- -- 37
2018-05-19 12:00:00 20 4 Norte 24 Noroeste 0 -- -- 32
2018-05-19 11:00:00 18.2 10 Noroeste 26 Noroeste 0 -- -- 37
2018-05-19 10:00:00 14.5 0 Calma 7 Noroeste 0 -- -- 58
2018-05-19 09:00:00 9 4 Norte 8 Noroeste 0 -- -- 84
2018-05-19 08:00:00 5.7 0 Calma 12 Noroeste 0 -- -- 93
2018-05-19 07:00:00 5.3 2 Noroeste 5 Noroeste 0 -- -- 95
2018-05-19 06:00:00 5.8 2 Noroeste 4 Noroeste 0 -- -- 93
2018-05-19 05:00:00 6.8 3 Oeste 15 Norte 0 -- -- 88
2018-05-19 04:00:00 7.1 3 Noroeste 10 Noroeste 0 -- -- 91
2018-05-19 03:00:00 7.9 2 Norte 16 Norte 0 -- -- 89
2018-05-19 02:00:00 9 0 Calma 14 Oeste 0 -- -- 86
2018-05-19 01:00:00 9.8 0 Calma 5 Norte 0 -- -- 84
2018-05-19 00:00:00 10 0 Calma 6 Oeste 0 -- -- 83
2018-05-18 23:00:00 11.3 3 Noroeste 8 Este 0 -- -- 79
2018-05-18 22:00:00 13.5 3 Este 17 Sudeste 0 -- -- 66
2018-05-18 21:00:00 15.2 5 Sudeste 26 Este 0 -- -- 60
2018-05-18 20:00:00 16.6 4 Sudeste 22 Sudeste 0 -- -- 56
2018-05-18 19:00:00 17.3 4 Sudeste 18 Sur 0 -- -- 54
2018-05-18 18:00:00 18.9 6 Sudeste 30 Sur 0 -- -- 50
2018-05-18 17:00:00 20.6 8 Sudeste 27 Este 0 -- -- 45
2018-05-18 16:00:00 18.8 5 Sudeste 29 Sudeste 0 -- -- 50
2018-05-18 15:00:00 18.6 7 Sudeste 28 Sur 0 -- -- 51
2018-05-18 14:00:00 17.8 9 Sudeste 30 Sudeste 0 -- -- 55
2018-05-18 13:00:00 19.3 7 Sudeste 31 Este 0 -- -- 47
2018-05-18 12:00:00 17.8 6 Sudeste 27 Este 0 -- -- 54
2018-05-18 11:00:00 15.6 7 Sudeste 30 Sudeste 0 -- -- 59
2018-05-18 10:00:00 14.4 4 Este 10 Sur 0 -- -- 63
2018-05-18 09:00:00 9.4 2 Norte 12 Noroeste 0 -- -- 84
2018-05-18 08:00:00 6.2 2 Noroeste 9 Norte 0 -- -- 91
2018-05-18 07:00:00 6.4 2 Noroeste 9 Noroeste 0 -- -- 89
2018-05-18 06:00:00 7.2 2 Noroeste 14 Norte 0 -- -- 87
2018-05-18 05:00:00 7.9 0 Calma 17 Norte 0 -- -- 86
2018-05-18 04:00:00 8.2 5 Norte 17 Norte 0 -- -- 86
2018-05-18 03:00:00 8.6 2 Norte 10 Noroeste 0 -- -- 83
2018-05-18 02:00:00 8.9 4 Noroeste 8 Noroeste 0 -- -- 83
2018-05-18 01:00:00 9.1 0 Calma 7 Norte 0 -- -- 81
2018-05-18 00:00:00 9.7 2 Noroeste 5 Noroeste 0 -- -- 80
2018-05-17 23:00:00 11.6 0 Calma 5 Este 0 -- -- 74
2018-05-17 22:00:00 14 2 Este 23 Noroeste 0 -- -- 63
2018-05-17 21:00:00 16.1 10 Noroeste 30 Noroeste 0 -- -- 47
2018-05-17 20:00:00 17.4 9 Noroeste 29 Noroeste 0 -- -- 44
2018-05-17 19:00:00 18.6 13 Noroeste 37 Noroeste 0 -- -- 41
2018-05-17 18:00:00 19.7 14 Noroeste 39 Noroeste 0 -- -- 37
2018-05-17 17:00:00 19.9 18 Noroeste 45 Noroeste 0 -- -- 38
2018-05-17 16:00:00 20.1 17 Noroeste 32 Noroeste 0 -- -- 34
2018-05-17 15:00:00 21.5 4 Sudeste 24 Noroeste 0 -- -- 31
2018-05-17 14:00:00 20.5 13 Noroeste 27 Noroeste 0 -- -- 28
2018-05-17 13:00:00 20.1 9 Noroeste 28 Noroeste 0 -- -- 32
2018-05-17 12:00:00 20.3 6 Sudeste 19 Sur 0 -- -- 41
2018-05-17 11:00:00 17.2 4 Sudeste 11 Este 0 -- -- 53
2018-05-17 10:00:00 13.8 2 Nordeste 6 Este 0 -- -- 54
2018-05-17 09:00:00 7.9 0 Calma 12 Norte 0 -- -- 81
2018-05-17 08:00:00 6 2 Noroeste 12 Noroeste 0 -- -- 88
2018-05-17 07:00:00 4.8 0 Calma 8 Oeste 0 -- -- 90
2018-05-17 06:00:00 5 0 Calma 14 Sudoeste 0 -- -- 90
2018-05-17 05:00:00 5.4 0 Calma 8 Sudoeste 0 -- -- 88
2018-05-17 04:00:00 6.1 2 Noroeste 13 Norte 0 -- -- 86
2018-05-17 03:00:00 6.8 0 Calma 16 Norte 0 -- -- 82
2018-05-17 02:00:00 8.4 6 Noroeste 16 Norte 0 -- -- 76
2018-05-17 01:00:00 8.9 4 Noroeste 13 Norte 0 -- -- 75
2018-05-17 00:00:00 10.2 4 Noroeste 16 Norte 0 -- -- 68
2018-05-16 23:00:00 12 4 Noroeste 20 Noroeste 0 -- -- 62
2018-05-16 22:00:00 13.4 8 Noroeste 28 Noroeste 0 -- -- 56
2018-05-16 21:00:00 14.8 12 Noroeste 35 Noroeste 0 -- -- 50
2018-05-16 20:00:00 16.1 16 Noroeste 35 Oeste 0 -- -- 47
2018-05-16 19:00:00 17.5 13 Noroeste 35 Noroeste 0 -- -- 43
2018-05-16 18:00:00 19.5 16 Noroeste 36 Noroeste 0 -- -- 36
2018-05-16 17:00:00 20.2 16 Noroeste 36 Noroeste 0 -- -- 33
2018-05-16 16:00:00 20.5 16 Noroeste 39 Noroeste 0 -- -- 32
2018-05-16 15:00:00 19.9 17 Noroeste 40 Noroeste 0 -- -- 34
2018-05-16 14:00:00 19.5 24 Noroeste 41 Noroeste 0 -- -- 36
2018-05-16 13:00:00 18.3 22 Noroeste 41 Noroeste 0 -- -- 39
2018-05-16 12:00:00 17 15 Noroeste 36 Noroeste 0 -- -- 40
2018-05-16 11:00:00 15.9 10 Noroeste 35 Noroeste 0 -- -- 44
2018-05-16 10:00:00 15.4 13 Noroeste 23 Noroeste 0 -- -- 46
2018-05-16 09:00:00 11.2 8 Norte 25 Norte 0 -- -- 62
2018-05-16 08:00:00 5.9 0 Calma 11 Noroeste 0 -- -- 87
2018-05-16 07:00:00 6.3 3 Oeste 25 Noroeste 0 -- -- 82
2018-05-16 06:00:00 8.3 10 Norte 28 Norte 0 -- -- 72
2018-05-16 05:00:00 8 8 Noroeste 35 Noroeste 0 -- -- 77
2018-05-16 04:00:00 7.9 7 Noroeste 32 Norte 0 -- -- 81
2018-05-16 03:00:00 9.2 15 Norte 36 Norte 0 -- -- 76
2018-05-16 02:00:00 9.9 18 Norte 34 Norte 0 -- -- 75
2018-05-16 01:00:00 10.3 13 Noroeste 31 Norte 0 -- -- 76
2018-05-16 00:00:00 10.4 4 Norte 23 Noroeste 0 -- -- 78
2018-05-15 23:00:00 10.4 9 Norte 31 Norte 0 -- -- 78
2018-05-15 22:00:00 9.8 8 Noroeste 17 Norte 0 -- -- 84
2018-05-15 21:00:00 10.7 9 Norte 26 Noroeste 0 -- -- 79
2018-05-15 20:00:00 11.1 6 Noroeste 15 Noroeste 0 -- -- 75
2018-05-15 19:00:00 11.5 2 Noroeste 13 Norte 0 -- -- 75
2018-05-15 18:00:00 11.7 4 Noroeste 9 Noroeste 0 -- -- 74
2018-05-15 17:00:00 12.2 6 Noroeste 9 Noroeste 0 -- -- 68
2018-05-15 16:00:00 12.2 4 Noroeste 24 Noroeste 0 -- -- 63
2018-05-15 15:00:00 13 6 Noroeste 24 Noroeste 0 -- -- 56
2018-05-15 14:00:00 12.5 6 Noroeste 24 Noroeste 0 -- -- 58
2018-05-15 13:00:00 12.6 8 Noroeste 34 Noroeste 0 -- -- 55
2018-05-15 12:00:00 12.5 13 Noroeste 33 Noroeste 0 -- -- 61
2018-05-15 11:00:00 12.1 4 Sudoeste 23 Noroeste 0 -- -- 55
2018-05-15 10:00:00 11.1 12 Noroeste 34 Noroeste 0 -- -- 56
2018-05-15 09:00:00 11 10 Noroeste 38 Noroeste 0 -- -- 56
2018-05-15 08:00:00 10.2 8 Norte 28 Noroeste 0 -- -- 60
2018-05-15 07:00:00 8.6 8 Noroeste 19 Noroeste 0 -- -- 65
2018-05-15 06:00:00 7.6 2 Este 9 Este 0 -- -- 72
2018-05-15 05:00:00 8.9 3 Oeste 36 Noroeste 0 -- -- 59
2018-05-15 04:00:00 9.3 17 Noroeste 39 Noroeste 0 -- -- 52
2018-05-15 03:00:00 8.9 6 Norte 22 Noroeste 0 -- -- 58
2018-05-15 02:00:00 9.3 9 Noroeste 23 Norte 0 -- -- 53
2018-05-15 01:00:00 9.6 14 Noroeste 29 Noroeste 0 -- -- 49
2018-05-15 00:00:00 9.6 10 Noroeste 26 Noroeste 0 -- -- 50
2018-05-14 23:00:00 9.7 11 Noroeste 32 Noroeste 0 -- -- 50
2018-05-14 22:00:00 9.6 13 Noroeste 37 Noroeste 0 -- -- 48
2018-05-14 21:00:00 9.5 15 Noroeste 37 Noroeste 0 -- -- 47
2018-05-14 20:00:00 10 10 Noroeste 44 Norte 0 -- -- 48
2018-05-14 19:00:00 10.6 13 Noroeste 39 Norte 0 -- -- 45
2018-05-14 18:00:00 11 14 Noroeste 46 Noroeste 0 -- -- 44
2018-05-14 17:00:00 11.8 17 Noroeste 56 Noroeste 0 -- -- 41
2018-05-14 16:00:00 13.2 15 Noroeste 47 Noroeste 0 -- -- 38
2018-05-14 15:00:00 12.6 17 Noroeste 44 Noroeste 0 -- -- 34
2018-05-14 14:00:00 9.8 13 Noroeste 47 Noroeste 0 -- -- 50
2018-05-14 13:00:00 10.5 15 Noroeste 40 Noroeste 0 -- -- 38
2018-05-14 12:00:00 10.1 16 Noroeste 44 Noroeste 0 -- -- 39
2018-05-14 11:00:00 9.4 13 Noroeste 37 Norte 0 -- -- 41
2018-05-14 10:00:00 9.7 14 Noroeste 35 Noroeste 0 -- -- 39
2018-05-14 09:00:00 7.6 10 Noroeste 35 Noroeste 0 -- -- 43
2018-05-14 08:00:00 3.7 5 Noroeste 16 Noroeste 0 -- -- 64
2018-05-14 07:00:00 1.7 5 Noroeste 21 Norte 0 -- -- 73
2018-05-14 06:00:00 1 0 Calma 15 Sudoeste 0 -- -- 88
2018-05-14 05:00:00 2.2 2 Noroeste 9 Norte 0 -- -- 81
2018-05-14 04:00:00 4.2 0 Calma 21 Norte 0 -- -- 68
2018-05-14 03:00:00 5.4 7 Noroeste 27 Noroeste 0 -- -- 59
2018-05-14 02:00:00 5.6 7 Norte 19 Norte 0 -- -- 60
2018-05-14 01:00:00 5.2 9 Noroeste 23 Norte 0 -- -- 60
2018-05-11 20:00:00 18.6 5 Este 18 Este 0 -- -- 48
2018-05-11 19:00:00 19.8 6 Sudeste 23 Sudeste 0 -- -- 43
2018-05-11 18:00:00 21.2 8 Sudeste 26 Sudeste 0 -- -- 39
2018-05-11 17:00:00 22.8 7 Sudeste 24 Sudeste 0 -- -- 34
2018-05-11 16:00:00 22.8 8 Sudeste 25 Sur 0 -- -- 34
2018-05-11 15:00:00 21.7 8 Sudeste 27 Sudeste 0 -- -- 38
2018-05-11 14:00:00 21.4 9 Sudeste 25 Sudeste 0 -- -- 40
2018-05-11 13:00:00 20.3 8 Sudeste 28 Sur 0 -- -- 40
2018-05-11 12:00:00 18.7 12 Sudeste 28 Sur 0 -- -- 42
2018-05-11 11:00:00 16.9 5 Sudeste 18 Sur 0 -- -- 44
2018-05-11 10:00:00 13.8 4 Este 9 Este 0 -- -- 58
2018-05-11 09:00:00 8.5 0 Calma 6 Sudoeste 0 -- -- 84
2018-05-11 08:00:00 5.7 3 Noroeste 12 Noroeste 0 -- -- 90
2018-05-11 07:00:00 5.4 0 Calma 14 Norte 0 -- -- 90
2018-05-11 06:00:00 5.9 0 Calma 14 Oeste 0 -- -- 87
2018-05-11 05:00:00 6.2 3 Noroeste 11 Norte 0 -- -- 87
2018-05-11 04:00:00 7 2 Noroeste 16 Sudoeste 0 -- -- 84
2018-05-11 03:00:00 8.2 4 Noroeste 10 Noroeste 0 -- -- 79
2018-05-11 02:00:00 8.1 3 Noroeste 16 Noroeste 0 -- -- 79
2018-05-11 01:00:00 8.3 4 Noroeste 11 Norte 0 -- -- 78
2018-05-11 00:00:00 8.8 3 Noroeste 16 Norte 0 -- -- 74
2018-05-10 23:00:00 10 4 Noroeste 18 Norte 0 -- -- 69
2018-05-10 22:00:00 10.9 5 Norte 21 Noroeste 0 -- -- 64
2018-05-10 21:00:00 12.2 8 Noroeste 38 Noroeste 0 -- -- 55
2018-05-10 20:00:00 12.5 13 Noroeste 36 Noroeste 0 -- -- 54
2018-05-10 19:00:00 13.5 18 Noroeste 42 Noroeste 0 -- -- 53
2018-05-10 18:00:00 13.9 18 Noroeste 50 Noroeste 0 -- -- 51
2018-05-10 17:00:00 14.3 21 Noroeste 55 Noroeste 0 -- -- 49
2018-05-10 16:00:00 16 28 Noroeste 55 Norte 0 -- -- 46
2018-05-10 15:00:00 17.2 28 Noroeste 63 Noroeste 0 -- -- 42
2018-05-10 14:00:00 18.2 23 Noroeste 44 Noroeste 0 -- -- 37
2018-05-10 13:00:00 18.6 15 Noroeste 35 Noroeste 0 -- -- 33
2018-05-10 12:00:00 17.1 13 Noroeste 32 Noroeste 0 -- -- 32
2018-05-10 11:00:00 14.7 12 Noroeste 38 Noroeste 0 -- -- 42
2018-05-10 10:00:00 14.1 10 Noroeste 28 Noroeste 0 -- -- 45
2018-05-10 09:00:00 12.7 5 Norte 23 Noroeste 0 -- -- 54
2018-05-10 08:00:00 11.5 10 Noroeste 26 Noroeste 0 -- -- 55
2018-05-10 07:00:00 11.2 9 Noroeste 31 Noroeste 0 -- -- 56
2018-05-10 06:00:00 11.9 17 Noroeste 38 Noroeste 0 -- -- 54
2018-05-10 05:00:00 11.1 16 Noroeste 33 Norte 0 -- -- 62
2018-05-10 04:00:00 11.1 10 Noroeste 28 Norte 0 -- -- 68
2018-05-10 03:00:00 11.6 10 Norte 30 Noroeste 0 -- -- 67
2018-05-10 02:00:00 11.9 9 Noroeste 26 Noroeste 0 -- -- 67
2018-05-10 01:00:00 13.2 12 Noroeste 27 Noroeste 0 -- -- 61
2018-05-10 00:00:00 13.9 10 Noroeste 27 Noroeste 0 -- -- 60
2018-05-09 23:00:00 14.4 13 Noroeste 35 Noroeste 0 -- -- 56
2018-05-09 22:00:00 14.7 16 Noroeste 37 Noroeste 0 -- -- 55
2018-05-09 21:00:00 15.2 12 Noroeste 37 Noroeste 0 -- -- 52
2018-05-09 20:00:00 16.5 13 Noroeste 37 Noroeste 0 -- -- 49
2018-05-09 19:00:00 18.6 14 Noroeste 33 Noroeste 0 -- -- 41
2018-05-09 18:00:00 19.5 14 Noroeste 41 Noroeste 0 -- -- 37
2018-05-09 17:00:00 20.6 18 Noroeste 40 Noroeste 0 -- -- 36
2018-05-09 16:00:00 20.7 20 Noroeste 42 Noroeste 0 -- -- 34
2018-05-09 15:00:00 20.8 18 Noroeste 45 Norte 0 -- -- 36
2018-05-09 14:00:00 20.3 21 Noroeste 46 Noroeste 0 -- -- 38
2018-05-09 13:00:00 19.6 21 Noroeste 42 Noroeste 0 -- -- 35
2018-05-09 12:00:00 18.9 20 Noroeste 37 Noroeste 0 -- -- 34
2018-05-09 11:00:00 18.1 18 Noroeste 34 Noroeste 0 -- -- 34
2018-05-09 10:00:00 15.6 9 Norte 22 Norte 0 -- -- 41
2018-05-09 09:00:00 10.9 6 Norte 17 Norte 0 -- -- 68
2018-05-09 08:00:00 6.2 2 Nordeste 11 Noroeste 0 -- -- 93
2018-05-09 07:00:00 6.1 3 Noroeste 21 Noroeste 0 -- -- 90
2018-05-09 06:00:00 6.4 4 Noroeste 14 Noroeste 0 -- -- 88
2018-05-09 05:00:00 7.3 3 Noroeste 19 Noroeste 0 -- -- 84
2018-05-09 04:00:00 8 4 Noroeste 16 Norte 0 -- -- 83
2018-05-09 03:00:00 7.9 4 Norte 14 Norte 0 -- -- 88
2018-05-09 02:00:00 9.5 3 Noroeste 16 Norte 0 -- -- 80
2018-05-09 01:00:00 10.8 7 Norte 19 Norte 0 -- -- 73
2018-05-09 00:00:00 12.5 11 Norte 30 Norte 0 -- -- 65
2018-05-08 23:00:00 12.6 6 Norte 22 Norte 0 -- -- 68
2018-05-08 22:00:00 12.5 7 Norte 15 Noroeste 0 -- -- 69
2018-05-08 21:00:00 14.1 5 Noroeste 27 Noroeste 0 -- -- 63
2018-05-08 20:00:00 17 10 Noroeste 32 Noroeste 0 -- -- 48
2018-05-08 19:00:00 18.9 16 Noroeste 33 Noroeste 0 -- -- 41
2018-05-08 18:00:00 19.5 12 Noroeste 30 Noroeste 0 -- -- 39
2018-05-08 17:00:00 19.9 15 Noroeste 31 Noroeste 0 -- -- 41
2018-05-08 16:00:00 20.2 14 Noroeste 33 Noroeste 0 -- -- 38
2018-05-08 15:00:00 18.7 9 Noroeste 33 Noroeste 0 -- -- 42
2018-05-08 14:00:00 20.4 12 Noroeste 35 Noroeste 0 -- -- 46
2018-05-08 13:00:00 19 10 Noroeste 26 Norte 0 -- -- 46
2018-05-08 12:00:00 15.4 8 Norte 22 Noroeste 0 -- -- 69
2018-05-08 11:00:00 15.4 6 Este 15 Este 0 -- -- 70
2018-05-08 10:00:00 14.4 5 Sudeste 12 Noroeste 0 -- -- 76
2018-05-08 09:00:00 11.5 0 Calma 26 Norte 0 -- -- 93
2018-05-08 08:00:00 10.7 10 Norte 28 Noroeste 0 -- -- 90
2018-05-08 07:00:00 9.9 6 Noroeste 16 Noroeste 0 -- -- 95
2018-05-08 06:00:00 9.2 7 Norte 14 Noroeste 0 -- -- 96
2018-05-08 05:00:00 9.2 5 Norte 19 Norte 0 -- -- 93
2018-05-08 04:00:00 9.8 4 Noroeste 28 Noroeste 1.2 -- -- 92
2018-05-08 03:00:00 10.5 9 Noroeste 21 Noroeste 6.4 -- -- 96
2018-05-08 02:00:00 10.8 0 Calma 7 Norte 0.6 -- -- 97
2018-05-08 01:00:00 11 3 Noroeste 19 Norte 1.2 -- -- 96
2018-05-08 00:00:00 11.4 4 Noroeste 17 Nordeste 0.6 -- -- 93
2018-05-07 23:00:00 11.7 4 Norte 18 Norte 0.2 -- -- 94
2018-05-07 22:00:00 12.2 3 Norte 7 Noroeste 0.2 -- -- 95
2018-05-07 21:00:00 12.7 0 Calma 7 Noroeste 1.4 -- -- 92
2018-05-07 20:00:00 13.1 2 Noroeste 12 Norte 2 -- -- 92
2018-05-07 19:00:00 14.4 4 Noroeste 27 Sudeste 0 -- -- 82
2018-05-07 18:00:00 19.4 6 Sudeste 40 Sudeste 0 -- -- 53
2018-05-07 17:00:00 21.2 4 Este 37 Noroeste 0 -- -- 46
2018-05-07 16:00:00 21.6 12 Noroeste 52 Oeste 0 -- -- 38
2018-05-07 15:00:00 22.7 13 Noroeste 37 Noroeste 0 -- -- 36
2018-05-07 14:00:00 21.6 19 Noroeste 44 Norte 0 -- -- 39
2018-05-07 13:00:00 21 17 Noroeste 37 Noroeste 0 -- -- 38
2018-05-07 12:00:00 19 5 Sudeste 20 Sur 0 -- -- 49
2018-05-07 11:00:00 17.1 5 Este 17 Este 0 -- -- 57
2018-05-07 10:00:00 14.7 3 Sudeste 10 Este 0 -- -- 65
2018-05-07 09:00:00 12.2 2 Este 6 Noroeste 0 -- -- 75
2018-05-07 08:00:00 10 2 Noroeste 16 Noroeste 0 -- -- 83
2018-05-07 07:00:00 9.2 4 Noroeste 18 Norte 0 -- -- 84
2018-05-07 06:00:00 8.6 3 Noroeste 15 Sudeste 0 -- -- 85
2018-05-07 05:00:00 8.6 3 Noroeste 16 Noroeste 0 -- -- 87
2018-05-07 04:00:00 8.3 3 Oeste 11 Norte 0 -- -- 89
2018-05-07 03:00:00 9.5 6 Norte 19 Norte 0 -- -- 83
2018-05-07 02:00:00 9.6 3 Noroeste 17 Norte 0 -- -- 85
2018-05-07 01:00:00 10.5 3 Oeste 18 Norte 0 -- -- 81
2018-05-07 00:00:00 10.1 2 Noroeste 12 Noroeste 0 -- -- 84
2018-05-06 23:00:00 10.8 0 Calma 13 Norte 0 -- -- 83
2018-05-06 22:00:00 11.7 3 Noroeste 6 Norte 0 -- -- 82
2018-05-06 21:00:00 13.6 2 Noroeste 5 Noroeste 0 -- -- 76
2018-05-06 20:00:00 16.6 2 Sudoeste 13 Sur 0 -- -- 63
2018-05-06 19:00:00 17.9 4 Sudeste 29 Sudeste 0 -- -- 57
2018-05-06 18:00:00 20.9 7 Sudeste 27 Sudeste 0 -- -- 47
2018-05-06 17:00:00 21.5 6 Noroeste 28 Norte 0 -- -- 38
2018-05-06 16:00:00 21.5 6 Sudeste 24 Noroeste 0 -- -- 36
2018-05-06 15:00:00 21.5 8 Sudeste 18 Sur 0 -- -- 33
2018-05-06 14:00:00 21.3 8 Sudeste 23 Sudeste 0 -- -- 33
2018-05-06 13:00:00 19 5 Sudeste 25 Sur 0 -- -- 43
2018-05-06 12:00:00 20 4 Sudeste 9 Este 0 -- -- 38
2018-05-06 11:00:00 18.4 4 Este 8 Este 0 -- -- 44
2018-05-06 10:00:00 13.9 0 Calma 6 Noroeste 0 -- -- 63
2018-05-06 09:00:00 8.6 2 Sudeste 15 Norte 0 -- -- 85
2018-05-06 08:00:00 5.3 3 Noroeste 12 Norte 0 -- -- 94
2018-05-06 07:00:00 5.2 4 Noroeste 13 Oeste 0 -- -- 94
2018-05-06 06:00:00 5.3 3 Oeste 13 Sudeste 0 -- -- 94
2018-05-06 05:00:00 5.9 3 Noroeste 10 Oeste 0 -- -- 92
2018-05-06 04:00:00 6.3 2 Noroeste 12 Norte 0 -- -- 91
2018-05-06 03:00:00 7.3 5 Noroeste 13 Noroeste 0 -- -- 89
2018-05-06 02:00:00 7.5 5 Norte 15 Norte 0 -- -- 90
2018-05-06 01:00:00 7.8 0 Calma 19 Norte 0 -- -- 90
2018-05-06 00:00:00 8 2 Noroeste 8 Noroeste 0 -- -- 89
2018-05-05 23:00:00 9.2 0 Calma 12 Noroeste 0 -- -- 86
2018-05-05 22:00:00 10.3 4 Norte 7 Norte 0 -- -- 84
2018-05-05 21:00:00 12.2 2 Noroeste 13 Sudoeste 0 -- -- 79
2018-05-05 20:00:00 15.2 3 Sudeste 18 Sudeste 0 -- -- 64
2018-05-05 19:00:00 16.5 8 Sudeste 24 Sudeste 0 -- -- 59
2018-05-05 18:00:00 17.7 5 Sudeste 24 Sur 0 -- -- 56
2018-05-05 17:00:00 17.3 8 Sudeste 27 Sur 0 -- -- 57
2018-05-05 16:00:00 18 14 Noroeste 33 Noroeste 0 -- -- 45
2018-05-05 15:00:00 18.4 14 Noroeste 35 Noroeste 0 -- -- 43
2018-05-05 14:00:00 18.9 15 Noroeste 39 Noroeste 0 -- -- 45
2018-05-05 13:00:00 18.1 15 Noroeste 39 Noroeste 0 -- -- 44
2018-05-05 12:00:00 17.8 16 Noroeste 38 Noroeste 0 -- -- 45
2018-05-05 11:00:00 15.2 19 Noroeste 39 Noroeste 0 -- -- 53
2018-05-05 10:00:00 15.4 6 Noroeste 28 Noroeste 0 -- -- 48
2018-05-05 09:00:00 15 7 Noroeste 22 Norte 0 -- -- 49
2018-05-05 08:00:00 8.2 3 Noroeste 13 Sudoeste 0 -- -- 80
2018-05-05 07:00:00 9 3 Noroeste 31 Noroeste 0 -- -- 72
2018-05-05 06:00:00 9.6 17 Norte 35 Noroeste 0 -- -- 68
2018-05-05 05:00:00 10 9 Norte 35 Norte 0 -- -- 67
2018-05-05 04:00:00 10.6 17 Norte 45 Noroeste 0 -- -- 64
2018-05-05 03:00:00 10.4 18 Noroeste 44 Noroeste 0 -- -- 66
2018-05-05 02:00:00 10.5 17 Noroeste 39 Norte 0 -- -- 66
2018-05-05 01:00:00 10.7 14 Noroeste 40 Noroeste 0 -- -- 65
2018-05-05 00:00:00 12.2 18 Noroeste 45 Noroeste 0 -- -- 57
2018-05-04 23:00:00 12.3 22 Noroeste 54 Noroeste 0 -- -- 53
2018-05-04 22:00:00 12.7 21 Noroeste 40 Noroeste 0 -- -- 54
2018-05-04 21:00:00 12.7 12 Noroeste 42 Noroeste 0 -- -- 54
2018-05-04 20:00:00 12.6 20 Noroeste 41 Noroeste 0 -- -- 54
2018-05-04 19:00:00 12.7 21 Noroeste 45 Noroeste 0 -- -- 56
2018-05-04 18:00:00 13.3 21 Noroeste 48 Noroeste 0 -- -- 54
2018-05-04 17:00:00 14.6 27 Noroeste 51 Noroeste 0 -- -- 49
2018-05-04 16:00:00 15 21 Noroeste 47 Noroeste 0 -- -- 49
2018-05-04 15:00:00 15.3 17 Noroeste 42 Noroeste 0 -- -- 46
2018-05-04 14:00:00 16.3 18 Noroeste 43 Noroeste 0 -- -- 47
2018-05-04 13:00:00 14.1 17 Noroeste 55 Noroeste 0 -- -- 50
2018-05-04 12:00:00 14.6 22 Noroeste 49 Oeste 0 -- -- 47
2018-05-04 11:00:00 12.1 19 Noroeste 58 Noroeste 0 -- -- 50
2018-05-04 10:00:00 12.1 21 Noroeste 41 Noroeste 0 -- -- 49
2018-05-04 09:00:00 10.2 12 Noroeste 41 Noroeste 0 -- -- 53
2018-05-04 08:00:00 9.6 15 Noroeste 42 Noroeste 0 -- -- 54
2018-05-04 07:00:00 9 16 Noroeste 36 Noroeste 0 -- -- 55
2018-05-04 06:00:00 8.7 16 Noroeste 45 Noroeste 0 -- -- 57
2018-05-04 05:00:00 8.9 20 Noroeste 44 Noroeste 0 -- -- 57
2018-05-04 04:00:00 9.1 21 Noroeste 55 Noroeste 0 -- -- 56
2018-05-04 03:00:00 9.5 18 Noroeste 36 Noroeste 0 -- -- 55
2018-05-04 02:00:00 9.5 15 Noroeste 39 Noroeste 0 -- -- 58
2018-05-04 01:00:00 9.9 17 Noroeste 32 Noroeste 0 -- -- 56
2018-05-04 00:00:00 9.9 12 Noroeste 31 Noroeste 0 -- -- 55
2018-05-03 23:00:00 10.1 15 Noroeste 47 Noroeste 0 -- -- 52
2018-05-03 22:00:00 10.1 19 Noroeste 46 Noroeste 0 -- -- 51
2018-05-03 21:00:00 10.2 19 Noroeste 43 Noroeste 0 -- -- 51
2018-05-03 20:00:00 10.1 13 Noroeste 45 Noroeste 0 -- -- 56
2018-05-03 19:00:00 10 14 Noroeste 41 Noroeste 0 -- -- 59
2018-05-03 18:00:00 10.6 17 Noroeste 45 Noroeste 0 -- -- 59
2018-05-03 17:00:00 11.3 20 Noroeste 50 Noroeste 0 -- -- 58
2018-05-03 16:00:00 12.9 25 Noroeste 58 Noroeste 0 -- -- 50
2018-05-03 15:00:00 10.2 20 Noroeste 42 Noroeste 0 -- -- 60
2018-05-03 14:00:00 10.7 14 Noroeste 27 Noroeste 0 -- -- 57
2018-05-03 13:00:00 10.5 18 Noroeste 38 Noroeste 0 -- -- 60
2018-05-03 12:00:00 10.9 12 Noroeste 40 Noroeste 0 -- -- 52
2018-05-03 11:00:00 10.2 15 Noroeste 39 Noroeste 0 -- -- 49
2018-05-03 10:00:00 10.9 15 Noroeste 40 Norte 0 -- -- 50
2018-05-03 09:00:00 9.5 17 Noroeste 37 Noroeste 0 -- -- 63
2018-05-03 08:00:00 7 6 Norte 20 Norte 0 -- -- 86
2018-05-03 07:00:00 6.4 0 Calma 20 Norte 0.2 -- -- 93
2018-05-03 06:00:00 7 8 Norte 19 Norte 0.6 -- -- 93
2018-05-03 05:00:00 6.6 0 Calma 13 Sudoeste 0.2 -- -- 95
2018-05-03 04:00:00 6.7 0 Calma 14 Sudoeste 0 -- -- 92
2018-05-03 03:00:00 6.9 3 Noroeste 11 Norte 0 -- -- 86
2018-05-03 02:00:00 7.3 0 Calma 13 Noroeste 0 -- -- 82
2018-05-03 01:00:00 8 4 Norte 19 Norte 0 -- -- 72
2018-05-03 00:00:00 7.8 6 Noroeste 18 Noroeste 0 -- -- 73
2018-05-02 23:00:00 8.6 10 Noroeste 23 Noroeste 0 -- -- 64
2018-05-02 22:00:00 9.5 11 Noroeste 23 Noroeste 0 -- -- 58
2018-05-02 21:00:00 9.9 9 Noroeste 27 Oeste 0 -- -- 55
2018-05-02 20:00:00 10.8 11 Noroeste 26 Oeste 0 -- -- 52
2018-05-02 19:00:00 11.6 10 Noroeste 27 Noroeste 0 -- -- 46
2018-05-02 18:00:00 12.8 11 Noroeste 29 Noroeste 0 -- -- 43
2018-05-02 17:00:00 14.5 14 Noroeste 35 Noroeste 0 -- -- 35
2018-05-02 16:00:00 14.8 15 Noroeste 33 Noroeste 0 -- -- 33
2018-05-02 15:00:00 14.5 7 Noroeste 30 Noroeste 0 -- -- 34
2018-05-02 14:00:00 15 13 Noroeste 29 Noroeste 0 -- -- 27
2018-05-02 13:00:00 13.6 13 Noroeste 33 Noroeste 0 -- -- 30
2018-05-02 12:00:00 13.5 11 Noroeste 28 Noroeste 0 -- -- 29
2018-05-02 11:00:00 12.5 6 Noroeste 22 Noroeste 0 -- -- 33
2018-05-02 10:00:00 9 3 Este 7 Este 0 -- -- 39
2018-05-02 09:00:00 1.8 0 Calma 6 Oeste 0 -- -- 80
2018-05-02 08:00:00 -1.1 2 Oeste 13 Norte 0 -- -- 83
2018-05-02 07:00:00 -1.1 4 Noroeste 17 Noroeste 0 -- -- 84
2018-05-02 06:00:00 -0.6 7 Noroeste 18 Norte 0 -- -- 83
2018-05-02 05:00:00 -0.7 4 Noroeste 16 Norte 0 -- -- 87
2018-05-02 04:00:00 0.2 6 Norte 21 Norte 0 -- -- 83
2018-05-02 03:00:00 0.6 6 Noroeste 17 Oeste 0 -- -- 83
2018-05-02 02:00:00 0.7 4 Noroeste 14 Noroeste 0 -- -- 85
2018-05-02 01:00:00 1.4 4 Noroeste 12 Noroeste 0 -- -- 82
2018-05-02 00:00:00 2.6 3 Oeste 17 Norte 0 -- -- 78
2018-05-01 23:00:00 2.8 0 Calma 4 Sur 0 -- -- 82
2018-05-01 22:00:00 4.2 0 Calma 9 Noroeste 0 -- -- 75
2018-05-01 21:00:00 6.3 5 Noroeste 26 Noroeste 0 -- -- 58
2018-05-01 20:00:00 8.2 10 Noroeste 31 Noroeste 0 -- -- 44
2018-05-01 19:00:00 9.8 11 Noroeste 35 Noroeste 0 -- -- 41
2018-05-01 18:00:00 9.2 14 Noroeste 35 Noroeste 0 -- -- 42
2018-05-01 17:00:00 10 14 Noroeste 40 Noroeste 0 -- -- 40
2018-05-01 16:00:00 10.3 14 Noroeste 40 Noroeste 0 -- -- 37
2018-05-01 15:00:00 11.2 13 Noroeste 37 Noroeste 0 -- -- 33
2018-05-01 14:00:00 11.4 12 Noroeste 36 Noroeste 0 -- -- 40
2018-05-01 13:00:00 10.5 18 Noroeste 35 Noroeste 0 -- -- 35
2018-05-01 12:00:00 9.7 12 Noroeste 29 Noroeste 0 -- -- 45
2018-05-01 11:00:00 7.8 16 Noroeste 29 Noroeste 0 -- -- 47
2018-05-01 10:00:00 7.4 15 Noroeste 31 Noroeste 0 -- -- 49
2018-05-01 09:00:00 5.4 10 Noroeste 22 Noroeste 0 -- -- 68
2018-05-01 08:00:00 2.3 8 Norte 21 Norte 0 -- -- 83
2018-05-01 07:00:00 0.5 0 Calma 14 Sudoeste 0 -- -- 95
2018-05-01 06:00:00 0.6 3 Oeste 17 Norte 0 -- -- 92
2018-05-01 05:00:00 1.3 6 Noroeste 28 Norte 0 -- -- 86
2018-05-01 04:00:00 1.6 9 Norte 25 Norte 0 -- -- 86
2018-05-01 03:00:00 1.7 12 Norte 27 Noroeste 0 -- -- 87
2018-05-01 02:00:00 1.9 11 Norte 27 Norte 0 -- -- 90
2018-05-01 01:00:00 2.3 6 Norte 15 Norte 0 -- -- 93
2018-05-01 00:00:00 2.8 4 Noroeste 21 Norte 0 -- -- 90
2018-04-30 23:00:00 2.7 4 Noroeste 17 Norte 0 -- -- 91
2018-04-30 22:00:00 3.9 10 Norte 27 Noroeste 0 -- -- 84
2018-04-30 21:00:00 4.3 0 Calma 13 Noroeste 0 -- -- 87
2018-04-30 20:00:00 6.2 2 Oeste 18 Noroeste 0 -- -- 82
2018-04-30 19:00:00 7.1 4 Noroeste 25 Noroeste 0 -- -- 69
2018-04-30 18:00:00 7.1 5 Noroeste 29 Noroeste 0 -- -- 73
2018-04-30 17:00:00 7.6 6 Sur 15 Sudeste 0 -- -- 72
2018-04-30 16:00:00 6.1 3 Sur 24 Noroeste 0.8 -- -- 78
2018-04-30 15:00:00 7.4 3 Sudeste 13 Sudeste 0 -- -- 75
2018-04-30 14:00:00 6.2 4 Sudeste 17 Este 0.8 -- -- 83
2018-04-30 13:00:00 6.7 5 Sudeste 26 Este 0 -- -- 69
2018-04-30 12:00:00 7.5 6 Sudeste 17 Sur 0 -- -- 64
2018-04-30 11:00:00 7.2 5 Sudeste 18 Sur 0 -- -- 65
2018-04-30 10:00:00 6.4 5 Sudeste 18 Sudeste 0 -- -- 83
2018-04-30 09:00:00 3.9 3 Este 16 Sur 0 -- -- 95
2018-04-30 08:00:00 3.3 6 Sur 21 Sudeste 0 -- -- 95
2018-04-30 07:00:00 3.3 5 Sur 15 Sudeste 0 -- -- 96
2018-04-30 06:00:00 3 3 Sur 16 Sudoeste 0 -- -- 96
2018-04-30 05:00:00 3.3 5 Sudeste 19 Sur 0.2 -- -- 97
2018-04-30 04:00:00 3.6 4 Sur 29 Este 0.6 -- -- 93
2018-04-30 03:00:00 4 5 Sudeste 17 Sudeste 0.2 -- -- 97
2018-04-30 02:00:00 4 5 Sudeste 24 Sudeste 0 -- -- 94
2018-04-30 01:00:00 4.4 8 Sudeste 26 Sudeste 1 -- -- 91
2018-04-30 00:00:00 4.6 8 Sudeste 21 Sudeste 0 -- -- 93
2018-04-29 23:00:00 4.9 5 Sudeste 21 Este 0.2 -- -- 90
2018-04-29 22:00:00 4.7 3 Sudeste 26 Este 0.2 -- -- 94
2018-04-29 21:00:00 5.4 7 Sudeste 24 Este 0 -- -- 87
2018-04-29 20:00:00 6.1 4 Sur 19 Este 1 -- -- 89
2018-04-29 19:00:00 7 4 Sudeste 17 Sudeste 0 -- -- 82
2018-04-29 18:00:00 7.1 4 Sudeste 14 Sudeste 0 -- -- 81
2018-04-29 17:00:00 5.7 2 Nordeste 15 Sudoeste 0 -- -- 87
2018-04-29 16:00:00 4.5 3 Sudeste 18 Sur 2 -- -- 94
2018-04-29 15:00:00 4 6 Sudeste 20 Sur 5.4 -- -- 88
2018-04-29 14:00:00 7.4 4 Oeste 11 Oeste 0.4 -- -- 76
2018-04-29 13:00:00 8.3 3 Norte 11 Noroeste 0 -- -- 78
2018-04-29 12:00:00 6.6 2 Noroeste 15 Noroeste 0 -- -- 83
2018-04-29 11:00:00 5.6 3 Nordeste 12 Este 0 -- -- 93
2018-04-29 10:00:00 5 3 Sudeste 14 Sudoeste 1.6 -- -- 94
2018-04-29 09:00:00 4.9 4 Sudeste 13 Sur 0.8 -- -- 97
2018-04-29 08:00:00 4.7 5 Sudeste 12 Este 2 -- -- 96
2018-04-29 07:00:00 5.3 5 Sudeste 30 Este 6.8 -- -- 94
2018-04-29 06:00:00 5.9 4 Sudeste 20 Sur 5.2 -- -- 94
2018-04-29 05:00:00 -- 6 Sudeste 47 Noroeste 4.6 -- -- 92
2018-04-29 04:00:00 9.7 13 Sudeste 56 Este 3 -- -- 89
2018-04-29 03:00:00 10.2 21 Este 52 Este 1.4 -- -- 90
2018-04-29 02:00:00 10.2 29 Este 59 Este 4.6 -- -- 88
2018-04-29 01:00:00 7.6 9 Norte 39 Este 7.2 -- -- 94
2018-04-29 00:00:00 9.2 15 Sudeste 69 Este 11 -- -- 91
2018-04-28 23:00:00 8.6 7 Norte 29 Este 2.2 -- -- 91
2018-04-28 22:00:00 7.2 8 Noroeste 22 Noroeste 0 -- -- 93
2018-04-28 21:00:00 7.2 5 Noroeste 41 Norte 3.6 -- -- 95
2018-04-28 20:00:00 7.9 10 Norte 57 Noroeste 0.8 -- -- 88
2018-04-28 19:00:00 13.5 21 Noroeste 73 Noroeste 0 -- -- 58
2018-04-28 18:00:00 15.5 8 Sudeste 29 Sudeste 0 -- -- 51
2018-04-28 17:00:00 16.4 5 Este 24 Este 0 -- -- 50
2018-04-28 16:00:00 16 9 Sudeste 30 Este 0 -- -- 50
2018-04-28 15:00:00 16 10 Sudeste 27 Este 0 -- -- 56
2018-04-28 14:00:00 15.5 8 Sudeste 37 Este 0 -- -- 61
2018-04-28 13:00:00 16.4 10 Sudeste 34 Este 0 -- -- 63
2018-04-28 12:00:00 13.9 19 Este 46 Este 0 -- -- 72
2018-04-28 11:00:00 13.2 22 Este 47 Este 0 -- -- 79
2018-04-28 10:00:00 11.8 21 Este 43 Este 0.2 -- -- 87
2018-04-28 09:00:00 11.1 24 Este 45 Este 1.4 -- -- 89
2018-04-28 08:00:00 11.5 21 Este 40 Este 0 -- -- 86
2018-04-28 07:00:00 11.5 14 Este 48 Este 0 -- -- 88
2018-04-28 06:00:00 11.7 23 Este 50 Este 0 -- -- 88
2018-04-28 05:00:00 10.5 10 Sudeste 41 Este 1.6 -- -- 98
2018-04-28 04:00:00 10.1 2 Sur 6 Este 0 -- -- 98
2018-04-28 03:00:00 10.1 0 Calma 5 Oeste 0.2 -- -- 98
2018-04-28 02:00:00 10.2 2 Noroeste 8 Norte 0 -- -- 98
2018-04-28 01:00:00 10.3 3 Norte 5 Noroeste 0.6 -- -- 98
2018-04-28 00:00:00 10.4 3 Noroeste 8 Noroeste 0 -- -- 98
2018-04-27 23:00:00 10.7 3 Oeste 16 Noroeste 0.2 -- -- 98
2018-04-27 22:00:00 10.3 10 Noroeste 38 Sudeste 16 -- -- 96
2018-04-27 21:00:00 14 9 Noroeste 24 Noroeste 0 -- -- 73
2018-04-27 20:00:00 15.2 9 Noroeste 24 Noroeste 0 -- -- 71
2018-04-27 19:00:00 15.7 6 Noroeste 20 Noroeste 0 -- -- 71
2018-04-27 18:00:00 15.5 11 Noroeste 38 Noroeste 0 -- -- 70
2018-04-27 17:00:00 15.8 14 Noroeste 37 Oeste 0 -- -- 73
2018-04-27 16:00:00 17.6 9 Noroeste 26 Sur 0 -- -- 67
2018-04-27 15:00:00 17.5 8 Noroeste 17 Noroeste 0.2 -- -- 77
2018-04-27 14:00:00 20.6 9 Sudeste 25 Sudeste 0 -- -- 43
2018-04-27 13:00:00 20.8 10 Sudeste 37 Sudeste 0 -- -- 40
2018-04-27 12:00:00 20.9 8 Sudeste 27 Este 0 -- -- 40
2018-04-27 11:00:00 18.6 5 Este 14 Sudeste 0 -- -- 49
2018-04-27 10:00:00 15.7 3 Nordeste 9 Este 0 -- -- 65
2018-04-27 09:00:00 10.8 3 Este 9 Norte 0 -- -- 87
2018-04-27 08:00:00 9.1 0 Calma 12 Norte 0 -- -- 93
2018-04-27 07:00:00 8.1 3 Noroeste 12 Norte 0 -- -- 93
2018-04-27 06:00:00 8.7 0 Calma 8 Noroeste 0 -- -- 91
2018-04-27 05:00:00 9.6 0 Calma 6 Este 0 -- -- 90
2018-04-27 04:00:00 10.2 0 Calma 7 Noroeste 0 -- -- 88
2018-04-27 03:00:00 10.1 3 Noroeste 7 Norte 0 -- -- 88
2018-04-27 02:00:00 9.1 2 Nordeste 6 Oeste 0 -- -- 90
2018-04-27 01:00:00 9.9 3 Noroeste 13 Nordeste 0 -- -- 85
2018-04-27 00:00:00 10.5 3 Noroeste 8 Noroeste 0 -- -- 86
2018-04-26 23:00:00 12.3 2 Norte 21 Norte 0 -- -- 76
2018-04-26 22:00:00 12.7 3 Noroeste 9 Noroeste 0 -- -- 81
2018-04-26 21:00:00 14.7 3 Noroeste 5 Noroeste 0 -- -- 75
2018-04-26 20:00:00 17.5 0 Calma 10 Este 0 -- -- 62
2018-04-26 19:00:00 20.9 3 Sur 17 Sudeste 0 -- -- 52
2018-04-26 18:00:00 21.3 6 Sudeste 30 Sudeste 0 -- -- 49
2018-04-26 17:00:00 23.1 10 Sudeste 30 Sudeste 0 -- -- 42
2018-04-26 16:00:00 23.4 11 Sudeste 35 Sudeste 0 -- -- 43
2018-04-26 15:00:00 23.3 9 Sudeste 28 Sudeste 0 -- -- 40
2018-04-26 14:00:00 22.9 10 Sudeste 34 Sur 0 -- -- 40
2018-04-26 13:00:00 22 11 Sudeste 36 Este 0 -- -- 41
2018-04-26 12:00:00 21 11 Sudeste 24 Sudeste 0 -- -- 42
2018-04-26 11:00:00 18.4 8 Sudeste 19 Sudeste 0 -- -- 51
2018-04-26 10:00:00 15.7 3 Este 8 Este 0 -- -- 58
2018-04-26 09:00:00 10 3 Sur 13 Norte 0 -- -- 86
2018-04-26 08:00:00 8.1 2 Nordeste 15 Norte 0 -- -- 86
2018-04-26 07:00:00 7.8 4 Noroeste 15 Oeste 0 -- -- 87
2018-04-26 06:00:00 8.2 6 Noroeste 15 Norte 0 -- -- 86
2018-04-26 05:00:00 8.5 3 Noroeste 18 Noroeste 0 -- -- 85
2018-04-26 04:00:00 9.3 5 Noroeste 16 Noroeste 0 -- -- 83
2018-04-26 03:00:00 10.1 4 Noroeste 12 Noroeste 0 -- -- 79
2018-04-26 02:00:00 11.5 4 Oeste 14 Noroeste 0 -- -- 73
2018-04-26 01:00:00 13 6 Noroeste 12 Noroeste 0 -- -- 70
2018-04-26 00:00:00 13.4 3 Noroeste 9 Noroeste 0 -- -- 73
2018-04-25 23:00:00 14.7 2 Noroeste 8 Este 0 -- -- 69
2018-04-25 22:00:00 15.4 3 Noroeste 5 Noroeste 0 -- -- 67
2018-04-25 21:00:00 18.8 4 Noroeste 20 Este 0 -- -- 53
2018-04-25 20:00:00 21.1 6 Sudeste 26 Sur 0 -- -- 42
2018-04-25 19:00:00 23.5 5 Sur 23 Este 0 -- -- 35
2018-04-25 18:00:00 24.2 6 Sudeste 23 Norte 0 -- -- 35
2018-04-25 17:00:00 23.8 6 Noroeste 34 Noroeste 0 -- -- 24
2018-04-25 16:00:00 24.6 14 Noroeste 29 Norte 0 -- -- 20
2018-04-25 15:00:00 26.2 6 Noroeste 18 Sur 0 -- -- 23
2018-04-25 14:00:00 23.7 6 Oeste 11 Sudeste 0 -- -- 28
2018-04-25 13:00:00 24.6 3 Noroeste 9 Noroeste 0 -- -- 31
2018-04-25 12:00:00 22.9 3 Norte 14 Este 0 -- -- 36
2018-04-25 11:00:00 19.5 5 Sudeste 10 Sur 0 -- -- 43
2018-04-25 10:00:00 15.7 2 Sudeste 22 Norte 0 -- -- 58
2018-04-25 09:00:00 11 11 Norte 20 Norte 0 -- -- 73
2018-04-25 08:00:00 7.2 3 Noroeste 14 Noroeste 0 -- -- 88
2018-04-25 07:00:00 7 3 Noroeste 16 Norte 0 -- -- 88
2018-04-25 06:00:00 7.3 5 Noroeste 16 Noroeste 0 -- -- 88
2018-04-25 05:00:00 7.4 3 Noroeste 12 Noroeste 0 -- -- 88
2018-04-25 04:00:00 7.7 2 Noroeste 10 Noroeste 0 -- -- 89
2018-04-25 03:00:00 8.3 4 Noroeste 12 Norte 0 -- -- 87
2018-04-25 02:00:00 8.8 3 Oeste 14 Sudoeste 0 -- -- 86
2018-04-25 01:00:00 9.4 3 Noroeste 13 Noroeste 0 -- -- 85
2018-04-25 00:00:00 10.5 3 Noroeste 11 Noroeste 0 -- -- 82
2018-04-24 23:00:00 11.2 3 Noroeste 12 Noroeste 0 -- -- 82
2018-04-24 22:00:00 12.3 3 Noroeste 10 Noroeste 0 -- -- 78
2018-04-24 21:00:00 14.5 4 Noroeste 9 Norte 0 -- -- 69
2018-04-24 20:00:00 16.5 3 Noroeste 9 Oeste 0 -- -- 65
2018-04-24 19:00:00 20.5 2 Sudoeste 14 Sudeste 0 -- -- 52
2018-04-24 18:00:00 23.5 8 Sudeste 18 Sur 0 -- -- 33
2018-04-24 17:00:00 24.5 8 Sudeste 23 Sur 0 -- -- 30
2018-04-24 16:00:00 24.3 6 Sudeste 16 Sur 0 -- -- 29
2018-04-24 15:00:00 23.7 6 Sudeste 22 Sudeste 0 -- -- 30
2018-04-24 14:00:00 22.8 8 Sudeste 29 Sur 0 -- -- 37
2018-04-24 13:00:00 21.7 8 Sudeste 21 Sudeste 0 -- -- 37
2018-04-24 12:00:00 19.8 9 Sudeste 28 Sudeste 0 -- -- 44
2018-04-24 11:00:00 16.3 5 Este 9 Este 0 -- -- 51
2018-04-24 10:00:00 12.3 3 Noroeste 16 Sudoeste 0 -- -- 77
2018-04-24 09:00:00 7.4 3 Noroeste 13 Noroeste 0 -- -- 97
2018-04-24 08:00:00 5.1 3 Noroeste 11 Noroeste 0 -- -- 97
2018-04-24 07:00:00 4.8 3 Noroeste 14 Noroeste 0 -- -- 97
2018-04-24 06:00:00 4.9 2 Oeste 13 Sudoeste 0 -- -- 96
2018-04-24 05:00:00 5.4 4 Oeste 14 Noroeste 0 -- -- 96
2018-04-24 04:00:00 6 6 Noroeste 15 Noroeste 0 -- -- 96
2018-04-24 03:00:00 5.9 4 Noroeste 15 Noroeste 0 -- -- 95
2018-04-24 02:00:00 6.5 4 Oeste 23 Noroeste 0 -- -- 94
2018-04-24 01:00:00 7.6 6 Norte 15 Noroeste 0 -- -- 92
2018-04-24 00:00:00 8.5 8 Noroeste 17 Norte 0 -- -- 90
2018-04-23 23:00:00 8.6 4 Noroeste 20 Noroeste 0 -- -- 91
2018-04-23 22:00:00 9.4 6 Noroeste 17 Norte 0 -- -- 91
2018-04-23 21:00:00 10.9 0 Calma 15 Noroeste 0 -- -- 88
2018-04-23 20:00:00 12.6 5 Noroeste 14 Noroeste 0 -- -- 85
2018-04-23 19:00:00 13.5 2 Oeste 5 Norte 0 -- -- 87
2018-04-23 18:00:00 13.1 4 Noroeste 18 Noroeste 0 -- -- 85
2018-04-23 17:00:00 12.5 5 Noroeste 12 Noroeste 1 -- -- 88
2018-04-23 16:00:00 12 4 Noroeste 19 Norte 3.2 -- -- 91
2018-04-23 15:00:00 13.1 3 Noroeste 14 Sur 1.6 -- -- 88
2018-04-23 14:00:00 17.1 6 Sudeste 30 Este 0 -- -- 46
2018-04-23 13:00:00 17.8 8 Sudeste 25 Sur 0 -- -- 49
2018-04-23 12:00:00 17.7 4 Norte 8 Noroeste 0 -- -- 48
2018-04-23 11:00:00 16 6 Noroeste 17 Noroeste 0 -- -- 60
2018-04-23 10:00:00 13.1 11 Norte 32 Norte 0 -- -- 71
2018-04-23 09:00:00 11 6 Noroeste 24 Norte 0.2 -- -- 80
2018-04-23 08:00:00 9.7 4 Sur 23 Noroeste 0 -- -- 84
2018-04-23 07:00:00 8.4 0 Calma 18 Noroeste 0 -- -- 82
2018-04-23 06:00:00 7.8 4 Noroeste 14 Norte 0 -- -- 86
2018-04-23 05:00:00 8.5 3 Noroeste 20 Noroeste 0 -- -- 82
2018-04-23 04:00:00 8.5 4 Noroeste 17 Norte 0 -- -- 84
2018-04-23 03:00:00 9.3 4 Noroeste 15 Noroeste 0 -- -- 82
2018-04-23 02:00:00 10.1 3 Noroeste 13 Norte 0 -- -- 78
2018-04-23 01:00:00 11.8 6 Noroeste 18 Norte 0 -- -- 73
2018-04-23 00:00:00 12 3 Norte 18 Norte 0 -- -- 75
2018-04-22 23:00:00 12.5 2 Noroeste 14 Norte 0 -- -- 73
2018-04-22 22:00:00 13.8 3 Norte 6 Noroeste 0 -- -- 73
2018-04-22 21:00:00 16.5 2 Sudeste 29 Sudeste 0 -- -- 60
2018-04-22 20:00:00 18.2 10 Sudeste 27 Sudeste 0 -- -- 52
2018-04-22 19:00:00 19.8 7 Sudeste 19 Sur 0 -- -- 41
2018-04-22 18:00:00 21.1 7 Sudeste 16 Sur 0 -- -- 33
2018-04-22 17:00:00 23.4 7 Sur 32 Sur 0 -- -- 29
2018-04-22 16:00:00 23.1 9 Sudeste 25 Sudeste 0 -- -- 25
2018-04-22 15:00:00 23 8 Sudeste 27 Sudeste 0 -- -- 28
2018-04-22 14:00:00 22.8 9 Sudeste 31 Sudeste 0 -- -- 30
2018-04-22 13:00:00 21.6 8 Sudeste 22 Sur 0 -- -- 29
2018-04-22 12:00:00 19.9 8 Sudeste 27 Sur 0 -- -- 36
2018-04-22 11:00:00 17.5 5 Este 15 Este 0 -- -- 43
2018-04-22 10:00:00 13.1 2 Sudeste 12 Noroeste 0 -- -- 57
2018-04-22 09:00:00 11.1 9 Noroeste 18 Norte 0 -- -- 63
2018-04-22 08:00:00 8.5 7 Noroeste 20 Norte 0 -- -- 75
2018-04-22 07:00:00 6.6 4 Noroeste 15 Norte 0 -- -- 86
2018-04-22 06:00:00 7.5 5 Noroeste 16 Noroeste 0 -- -- 82
2018-04-22 05:00:00 7.1 3 Noroeste 14 Sudoeste 0 -- -- 85
2018-04-22 04:00:00 7.6 4 Noroeste 12 Noroeste 0 -- -- 82
2018-04-22 03:00:00 8 4 Noroeste 14 Noroeste 0 -- -- 81
2018-04-22 02:00:00 9 5 Noroeste 14 Noroeste 0 -- -- 76
2018-04-22 01:00:00 9.1 3 Oeste 18 Noroeste 0 -- -- 77
2018-04-22 00:00:00 9.9 5 Noroeste 13 Noroeste 0 -- -- 77